sensor_id;sensor_type;location;lat;lon;timestamp;P1;durP1;ratioP1;P2;durP2;ratioP2
15096;SDS011;7649;52.084;7.478;2023-08-31T00:00:01;5.83;;;4.73;;
15096;SDS011;7649;52.084;7.478;2023-08-31T00:02:31;8.33;;;4.60;;
15096;SDS011;7649;52.084;7.478;2023-08-31T00:05:00;8.70;;;4.60;;
15096;SDS011;7649;52.084;7.478;2023-08-31T00:07:29;7.07;;;5.03;;
15096;SDS011;7649;52.084;7.478;2023-08-31T00:09:58;7.30;;;5.17;;
15096;SDS011;7649;52.084;7.478;2023-08-31T00:12:34;10.33;;;5.50;;
15096;SDS011;7649;52.084;7.478;2023-08-31T00:15:03;12.23;;;5.73;;
15096;SDS011;7649;52.084;7.478;2023-08-31T00:17:32;9.90;;;5.73;;
15096;SDS011;7649;52.084;7.478;2023-08-31T00:20:00;7.83;;;5.97;;
15096;SDS011;7649;52.084;7.478;2023-08-31T00:22:32;8.80;;;5.50;;
15096;SDS011;7649;52.084;7.478;2023-08-31T00:25:00;10.97;;;5.83;;
15096;SDS011;7649;52.084;7.478;2023-08-31T00:27:29;7.97;;;6.07;;
15096;SDS011;7649;52.084;7.478;2023-08-31T00:29:59;8.67;;;5.67;;
15096;SDS011;7649;52.084;7.478;2023-08-31T00:32:28;6.00;;;5.33;;
15096;SDS011;7649;52.084;7.478;2023-08-31T00:34:57;8.60;;;5.47;;
15096;SDS011;7649;52.084;7.478;2023-08-31T00:37:26;9.40;;;5.33;;
15096;SDS011;7649;52.084;7.478;2023-08-31T00:39:55;7.03;;;5.20;;
15096;SDS011;7649;52.084;7.478;2023-08-31T00:42:23;8.00;;;5.47;;
15096;SDS011;7649;52.084;7.478;2023-08-31T00:44:52;8.20;;;5.20;;
15096;SDS011;7649;52.084;7.478;2023-08-31T00:47:23;6.97;;;5.30;;
15096;SDS011;7649;52.084;7.478;2023-08-31T00:49:52;10.30;;;5.60;;
15096;SDS011;7649;52.084;7.478;2023-08-31T00:52:21;7.10;;;5.17;;
15096;SDS011;7649;52.084;7.478;2023-08-31T00:54:51;9.70;;;5.30;;
15096;SDS011;7649;52.084;7.478;2023-08-31T00:57:22;10.50;;;5.33;;
15096;SDS011;7649;52.084;7.478;2023-08-31T00:59:53;8.70;;;4.93;;
15096;SDS011;7649;52.084;7.478;2023-08-31T01:02:28;8.33;;;5.27;;
15096;SDS011;7649;52.084;7.478;2023-08-31T01:05:19;7.30;;;5.10;;
15096;SDS011;7649;52.084;7.478;2023-08-31T01:07:51;6.97;;;5.17;;
15096;SDS011;7649;52.084;7.478;2023-08-31T01:10:22;7.83;;;5.10;;
15096;SDS011;7649;52.084;7.478;2023-08-31T01:12:54;8.20;;;4.93;;
15096;SDS011;7649;52.084;7.478;2023-08-31T01:15:23;9.77;;;5.43;;
15096;SDS011;7649;52.084;7.478;2023-08-31T01:17:54;8.97;;;5.60;;
15096;SDS011;7649;52.084;7.478;2023-08-31T01:20:26;5.83;;;4.70;;
15096;SDS011;7649;52.084;7.478;2023-08-31T01:22:57;7.17;;;4.70;;
15096;SDS011;7649;52.084;7.478;2023-08-31T01:25:29;8.33;;;4.70;;
15096;SDS011;7649;52.084;7.478;2023-08-31T01:28:00;9.90;;;5.00;;
15096;SDS011;7649;52.084;7.478;2023-08-31T01:30:29;8.97;;;4.57;;
15096;SDS011;7649;52.084;7.478;2023-08-31T01:32:58;8.20;;;4.87;;
15096;SDS011;7649;52.084;7.478;2023-08-31T01:35:27;6.73;;;4.67;;
15096;SDS011;7649;52.084;7.478;2023-08-31T01:37:59;6.07;;;4.53;;
15096;SDS011;7649;52.084;7.478;2023-08-31T01:40:30;6.83;;;4.50;;
15096;SDS011;7649;52.084;7.478;2023-08-31T01:43:01;6.03;;;4.30;;
15096;SDS011;7649;52.084;7.478;2023-08-31T01:45:30;4.93;;;4.10;;
15096;SDS011;7649;52.084;7.478;2023-08-31T01:48:00;6.50;;;4.73;;
15096;SDS011;7649;52.084;7.478;2023-08-31T01:50:29;7.20;;;4.53;;
15096;SDS011;7649;52.084;7.478;2023-08-31T01:52:59;6.50;;;4.83;;
15096;SDS011;7649;52.084;7.478;2023-08-31T01:55:27;7.87;;;4.50;;
15096;SDS011;7649;52.084;7.478;2023-08-31T01:57:57;7.87;;;4.63;;
15096;SDS011;7649;52.084;7.478;2023-08-31T02:00:26;5.93;;;4.07;;
15096;SDS011;7649;52.084;7.478;2023-08-31T02:02:54;5.87;;;4.20;;
15096;SDS011;7649;52.084;7.478;2023-08-31T02:05:23;6.40;;;4.00;;
15096;SDS011;7649;52.084;7.478;2023-08-31T02:07:52;4.90;;;4.50;;
15096;SDS011;7649;52.084;7.478;2023-08-31T02:10:21;7.10;;;4.67;;
15096;SDS011;7649;52.084;7.478;2023-08-31T02:12:50;6.20;;;4.60;;
15096;SDS011;7649;52.084;7.478;2023-08-31T02:15:19;5.43;;;4.37;;
15096;SDS011;7649;52.084;7.478;2023-08-31T02:17:49;6.37;;;4.33;;
15096;SDS011;7649;52.084;7.478;2023-08-31T02:20:18;6.10;;;4.10;;
15096;SDS011;7649;52.084;7.478;2023-08-31T02:22:47;6.47;;;3.80;;
15096;SDS011;7649;52.084;7.478;2023-08-31T02:25:16;7.53;;;4.13;;
15096;SDS011;7649;52.084;7.478;2023-08-31T02:27:46;6.43;;;4.60;;
15096;SDS011;7649;52.084;7.478;2023-08-31T02:30:14;5.13;;;3.87;;
15096;SDS011;7649;52.084;7.478;2023-08-31T02:32:45;5.40;;;4.57;;
15096;SDS011;7649;52.084;7.478;2023-08-31T02:35:13;5.83;;;4.33;;
15096;SDS011;7649;52.084;7.478;2023-08-31T02:37:42;4.27;;;3.87;;
15096;SDS011;7649;52.084;7.478;2023-08-31T02:40:11;4.93;;;4.00;;
15096;SDS011;7649;52.084;7.478;2023-08-31T02:42:40;8.53;;;4.20;;
15096;SDS011;7649;52.084;7.478;2023-08-31T02:45:11;5.17;;;4.67;;
15096;SDS011;7649;52.084;7.478;2023-08-31T02:47:40;5.80;;;4.23;;
15096;SDS011;7649;52.084;7.478;2023-08-31T02:50:11;5.53;;;4.33;;
15096;SDS011;7649;52.084;7.478;2023-08-31T02:52:40;6.07;;;4.40;;
15096;SDS011;7649;52.084;7.478;2023-08-31T02:55:08;7.23;;;4.80;;
15096;SDS011;7649;52.084;7.478;2023-08-31T02:57:37;5.77;;;4.40;;
15096;SDS011;7649;52.084;7.478;2023-08-31T03:00:06;5.37;;;4.87;;
15096;SDS011;7649;52.084;7.478;2023-08-31T03:02:39;5.93;;;4.90;;
15096;SDS011;7649;52.084;7.478;2023-08-31T03:05:08;5.77;;;5.20;;
15096;SDS011;7649;52.084;7.478;2023-08-31T03:07:40;5.30;;;4.80;;
15096;SDS011;7649;52.084;7.478;2023-08-31T03:10:09;6.70;;;5.03;;
15096;SDS011;7649;52.084;7.478;2023-08-31T03:12:38;6.60;;;5.57;;
15096;SDS011;7649;52.084;7.478;2023-08-31T03:15:07;6.43;;;5.10;;
15096;SDS011;7649;52.084;7.478;2023-08-31T03:17:36;8.70;;;5.97;;
15096;SDS011;7649;52.084;7.478;2023-08-31T03:20:05;7.87;;;6.00;;
15096;SDS011;7649;52.084;7.478;2023-08-31T03:22:34;7.40;;;6.67;;
15096;SDS011;7649;52.084;7.478;2023-08-31T03:25:04;10.27;;;6.67;;
15096;SDS011;7649;52.084;7.478;2023-08-31T03:27:32;7.17;;;6.50;;
15096;SDS011;7649;52.084;7.478;2023-08-31T03:30:02;7.93;;;6.97;;
15096;SDS011;7649;52.084;7.478;2023-08-31T03:32:30;8.90;;;7.50;;
15096;SDS011;7649;52.084;7.478;2023-08-31T03:34:59;9.17;;;7.27;;
15096;SDS011;7649;52.084;7.478;2023-08-31T03:37:30;8.03;;;7.33;;
15096;SDS011;7649;52.084;7.478;2023-08-31T03:39:58;7.50;;;6.80;;
15096;SDS011;7649;52.084;7.478;2023-08-31T03:42:28;8.40;;;7.47;;
15096;SDS011;7649;52.084;7.478;2023-08-31T03:44:56;11.40;;;7.50;;
15096;SDS011;7649;52.084;7.478;2023-08-31T03:47:25;8.97;;;7.53;;
15096;SDS011;7649;52.084;7.478;2023-08-31T03:49:53;9.83;;;7.90;;
15096;SDS011;7649;52.084;7.478;2023-08-31T03:52:22;10.40;;;8.30;;
15096;SDS011;7649;52.084;7.478;2023-08-31T03:54:51;8.47;;;7.67;;
15096;SDS011;7649;52.084;7.478;2023-08-31T03:57:19;10.23;;;8.37;;
15096;SDS011;7649;52.084;7.478;2023-08-31T03:59:51;9.47;;;8.57;;
15096;SDS011;7649;52.084;7.478;2023-08-31T04:02:19;10.17;;;9.03;;
15096;SDS011;7649;52.084;7.478;2023-08-31T04:04:49;10.70;;;9.60;;
15096;SDS011;7649;52.084;7.478;2023-08-31T04:07:17;13.87;;;9.87;;
15096;SDS011;7649;52.084;7.478;2023-08-31T04:09:46;11.30;;;8.70;;
15096;SDS011;7649;52.084;7.478;2023-08-31T04:12:14;11.43;;;9.33;;
15096;SDS011;7649;52.084;7.478;2023-08-31T04:14:42;12.90;;;9.87;;
15096;SDS011;7649;52.084;7.478;2023-08-31T04:17:13;13.07;;;8.73;;
15096;SDS011;7649;52.084;7.478;2023-08-31T04:19:42;10.93;;;9.20;;
15096;SDS011;7649;52.084;7.478;2023-08-31T04:22:10;10.83;;;9.73;;
15096;SDS011;7649;52.084;7.478;2023-08-31T04:24:38;10.80;;;9.40;;
15096;SDS011;7649;52.084;7.478;2023-08-31T04:27:07;12.60;;;9.90;;
15096;SDS011;7649;52.084;7.478;2023-08-31T04:29:35;13.57;;;10.37;;
15096;SDS011;7649;52.084;7.478;2023-08-31T04:32:04;13.00;;;9.97;;
15096;SDS011;7649;52.084;7.478;2023-08-31T04:34:34;11.77;;;9.97;;
15096;SDS011;7649;52.084;7.478;2023-08-31T04:37:03;12.40;;;10.20;;
15096;SDS011;7649;52.084;7.478;2023-08-31T04:39:32;11.63;;;10.43;;
15096;SDS011;7649;52.084;7.478;2023-08-31T04:42:00;11.93;;;10.80;;
15096;SDS011;7649;52.084;7.478;2023-08-31T04:44:29;13.97;;;11.63;;
15096;SDS011;7649;52.084;7.478;2023-08-31T04:46:57;12.57;;;11.33;;
15096;SDS011;7649;52.084;7.478;2023-08-31T04:49:25;14.00;;;11.30;;
15096;SDS011;7649;52.084;7.478;2023-08-31T04:51:55;14.50;;;11.83;;
15096;SDS011;7649;52.084;7.478;2023-08-31T04:54:24;12.57;;;11.43;;
15096;SDS011;7649;52.084;7.478;2023-08-31T04:56:52;12.40;;;11.17;;
15096;SDS011;7649;52.084;7.478;2023-08-31T04:59:21;13.37;;;11.93;;
15096;SDS011;7649;52.084;7.478;2023-08-31T05:01:50;13.60;;;12.23;;
15096;SDS011;7649;52.084;7.478;2023-08-31T05:04:18;14.50;;;12.43;;
15096;SDS011;7649;52.084;7.478;2023-08-31T05:06:47;14.47;;;12.90;;
15096;SDS011;7649;52.084;7.478;2023-08-31T05:09:18;13.93;;;12.50;;
15096;SDS011;7649;52.084;7.478;2023-08-31T05:11:47;15.90;;;13.87;;
15096;SDS011;7649;52.084;7.478;2023-08-31T05:14:16;16.43;;;13.13;;
15096;SDS011;7649;52.084;7.478;2023-08-31T05:16:44;15.73;;;13.50;;
15096;SDS011;7649;52.084;7.478;2023-08-31T05:19:13;15.20;;;13.60;;
15096;SDS011;7649;52.084;7.478;2023-08-31T05:21:42;14.83;;;13.30;;
15096;SDS011;7649;52.084;7.478;2023-08-31T05:24:10;14.53;;;13.20;;
15096;SDS011;7649;52.084;7.478;2023-08-31T05:26:40;14.67;;;12.33;;
15096;SDS011;7649;52.084;7.478;2023-08-31T05:29:08;12.97;;;11.70;;
15096;SDS011;7649;52.084;7.478;2023-08-31T05:31:37;13.57;;;12.27;;
15096;SDS011;7649;52.084;7.478;2023-08-31T05:34:05;12.90;;;11.73;;
15096;SDS011;7649;52.084;7.478;2023-08-31T05:36:34;12.97;;;11.67;;
15096;SDS011;7649;52.084;7.478;2023-08-31T05:39:02;13.77;;;12.33;;
15096;SDS011;7649;52.084;7.478;2023-08-31T05:41:31;13.20;;;12.00;;
15096;SDS011;7649;52.084;7.478;2023-08-31T05:44:02;13.77;;;12.30;;
15096;SDS011;7649;52.084;7.478;2023-08-31T05:46:31;12.63;;;11.43;;
15096;SDS011;7649;52.084;7.478;2023-08-31T05:49:00;13.00;;;11.77;;
15096;SDS011;7649;52.084;7.478;2023-08-31T05:51:28;14.10;;;12.70;;
15096;SDS011;7649;52.084;7.478;2023-08-31T05:53:57;13.77;;;12.37;;
15096;SDS011;7649;52.084;7.478;2023-08-31T05:56:25;13.43;;;12.23;;
15096;SDS011;7649;52.084;7.478;2023-08-31T05:58:54;13.67;;;12.40;;
15096;SDS011;7649;52.084;7.478;2023-08-31T06:01:24;13.77;;;12.47;;
15096;SDS011;7649;52.084;7.478;2023-08-31T06:03:52;15.43;;;12.80;;
15096;SDS011;7649;52.084;7.478;2023-08-31T06:06:20;12.87;;;11.57;;
15096;SDS011;7649;52.084;7.478;2023-08-31T06:08:49;13.70;;;12.30;;
15096;SDS011;7649;52.084;7.478;2023-08-31T06:11:18;14.10;;;11.60;;
15096;SDS011;7649;52.084;7.478;2023-08-31T06:13:46;13.60;;;12.20;;
15096;SDS011;7649;52.084;7.478;2023-08-31T06:16:14;12.70;;;11.60;;
15096;SDS011;7649;52.084;7.478;2023-08-31T06:18:44;12.43;;;11.33;;
15096;SDS011;7649;52.084;7.478;2023-08-31T06:21:13;12.90;;;11.70;;
15096;SDS011;7649;52.084;7.478;2023-08-31T06:23:41;13.03;;;11.73;;
15096;SDS011;7649;52.084;7.478;2023-08-31T06:26:09;13.80;;;12.60;;
15096;SDS011;7649;52.084;7.478;2023-08-31T06:28:37;14.17;;;12.67;;
15096;SDS011;7649;52.084;7.478;2023-08-31T06:31:06;14.83;;;13.30;;
15096;SDS011;7649;52.084;7.478;2023-08-31T06:33:35;14.50;;;13.10;;
15096;SDS011;7649;52.084;7.478;2023-08-31T06:36:05;14.73;;;13.53;;
15096;SDS011;7649;52.084;7.478;2023-08-31T06:38:33;15.90;;;14.03;;
15096;SDS011;7649;52.084;7.478;2023-08-31T06:41:02;14.43;;;13.03;;
15096;SDS011;7649;52.084;7.478;2023-08-31T06:43:31;15.43;;;14.07;;
15096;SDS011;7649;52.084;7.478;2023-08-31T06:45:59;15.97;;;14.57;;
15096;SDS011;7649;52.084;7.478;2023-08-31T06:48:48;16.53;;;14.83;;
15096;SDS011;7649;52.084;7.478;2023-08-31T06:51:18;16.50;;;14.73;;
15096;SDS011;7649;52.084;7.478;2023-08-31T06:53:50;16.83;;;14.40;;
15096;SDS011;7649;52.084;7.478;2023-08-31T06:56:19;16.00;;;14.40;;
15096;SDS011;7649;52.084;7.478;2023-08-31T06:58:47;16.23;;;14.70;;
15096;SDS011;7649;52.084;7.478;2023-08-31T07:01:15;15.77;;;14.37;;
15096;SDS011;7649;52.084;7.478;2023-08-31T07:03:43;16.03;;;14.53;;
15096;SDS011;7649;52.084;7.478;2023-08-31T07:06:12;17.03;;;15.33;;
15096;SDS011;7649;52.084;7.478;2023-08-31T07:08:42;16.57;;;14.87;;
15096;SDS011;7649;52.084;7.478;2023-08-31T07:11:11;16.03;;;14.63;;
15096;SDS011;7649;52.084;7.478;2023-08-31T07:13:40;18.10;;;16.30;;
15096;SDS011;7649;52.084;7.478;2023-08-31T07:16:08;17.00;;;15.07;;
15096;SDS011;7649;52.084;7.478;2023-08-31T07:18:37;17.37;;;15.87;;
15096;SDS011;7649;52.084;7.478;2023-08-31T07:21:06;16.50;;;15.00;;
15096;SDS011;7649;52.084;7.478;2023-08-31T07:23:37;16.07;;;14.60;;
15096;SDS011;7649;52.084;7.478;2023-08-31T07:26:07;15.40;;;14.00;;
15096;SDS011;7649;52.084;7.478;2023-08-31T07:28:35;16.60;;;14.00;;
15096;SDS011;7649;52.084;7.478;2023-08-31T07:31:03;15.33;;;13.90;;
15096;SDS011;7649;52.084;7.478;2023-08-31T07:33:33;17.33;;;15.03;;
15096;SDS011;7649;52.084;7.478;2023-08-31T07:36:03;13.97;;;12.70;;
15096;SDS011;7649;52.084;7.478;2023-08-31T07:38:32;13.97;;;12.30;;
15096;SDS011;7649;52.084;7.478;2023-08-31T07:41:01;14.47;;;12.97;;
15096;SDS011;7649;52.084;7.478;2023-08-31T07:43:32;12.47;;;11.10;;
15096;SDS011;7649;52.084;7.478;2023-08-31T07:46:00;11.07;;;10.07;;
15096;SDS011;7649;52.084;7.478;2023-08-31T07:48:29;10.70;;;9.60;;
15096;SDS011;7649;52.084;7.478;2023-08-31T07:50:57;10.60;;;9.70;;
15096;SDS011;7649;52.084;7.478;2023-08-31T07:53:25;12.00;;;10.80;;
15096;SDS011;7649;52.084;7.478;2023-08-31T07:55:56;11.30;;;10.20;;
15096;SDS011;7649;52.084;7.478;2023-08-31T07:58:24;10.43;;;9.50;;
15096;SDS011;7649;52.084;7.478;2023-08-31T08:00:55;10.03;;;9.13;;
15096;SDS011;7649;52.084;7.478;2023-08-31T08:03:23;9.70;;;8.90;;
15096;SDS011;7649;52.084;7.478;2023-08-31T08:05:52;9.70;;;8.90;;
15096;SDS011;7649;52.084;7.478;2023-08-31T08:08:20;9.80;;;8.90;;
15096;SDS011;7649;52.084;7.478;2023-08-31T08:10:51;9.43;;;8.27;;
15096;SDS011;7649;52.084;7.478;2023-08-31T08:13:20;10.20;;;8.50;;
15096;SDS011;7649;52.084;7.478;2023-08-31T08:15:48;10.67;;;8.60;;
15096;SDS011;7649;52.084;7.478;2023-08-31T08:18:18;8.47;;;7.77;;
15096;SDS011;7649;52.084;7.478;2023-08-31T08:20:47;9.10;;;8.30;;
15096;SDS011;7649;52.084;7.478;2023-08-31T08:23:15;9.37;;;8.10;;
15096;SDS011;7649;52.084;7.478;2023-08-31T08:25:44;9.20;;;8.30;;
15096;SDS011;7649;52.084;7.478;2023-08-31T08:28:12;8.67;;;7.77;;
15096;SDS011;7649;52.084;7.478;2023-08-31T08:30:40;7.83;;;7.10;;
15096;SDS011;7649;52.084;7.478;2023-08-31T08:33:09;7.80;;;7.10;;
15096;SDS011;7649;52.084;7.478;2023-08-31T08:35:39;7.57;;;6.87;;
15096;SDS011;7649;52.084;7.478;2023-08-31T08:38:08;7.50;;;6.13;;
15096;SDS011;7649;52.084;7.478;2023-08-31T08:40:36;6.17;;;5.57;;
15096;SDS011;7649;52.084;7.478;2023-08-31T08:43:05;6.03;;;5.27;;
15096;SDS011;7649;52.084;7.478;2023-08-31T08:45:36;9.17;;;4.47;;
15096;SDS011;7649;52.084;7.478;2023-08-31T08:48:05;6.97;;;4.40;;
15096;SDS011;7649;52.084;7.478;2023-08-31T08:50:36;5.53;;;4.10;;
15096;SDS011;7649;52.084;7.478;2023-08-31T08:53:05;5.10;;;4.60;;
15096;SDS011;7649;52.084;7.478;2023-08-31T08:55:34;4.87;;;4.37;;
15096;SDS011;7649;52.084;7.478;2023-08-31T08:58:03;5.37;;;4.23;;
15096;SDS011;7649;52.084;7.478;2023-08-31T09:00:31;4.80;;;4.00;;
15096;SDS011;7649;52.084;7.478;2023-08-31T09:03:00;5.23;;;3.70;;
15096;SDS011;7649;52.084;7.478;2023-08-31T09:05:30;4.77;;;4.17;;
15096;SDS011;7649;52.084;7.478;2023-08-31T09:08:03;4.50;;;3.73;;
15096;SDS011;7649;52.084;7.478;2023-08-31T09:10:38;4.40;;;3.60;;
15096;SDS011;7649;52.084;7.478;2023-08-31T09:13:07;3.73;;;3.33;;
15096;SDS011;7649;52.084;7.478;2023-08-31T09:15:39;5.73;;;3.43;;
15096;SDS011;7649;52.084;7.478;2023-08-31T09:18:09;5.67;;;3.87;;
15096;SDS011;7649;52.084;7.478;2023-08-31T09:20:45;4.43;;;3.50;;
15096;SDS011;7649;52.084;7.478;2023-08-31T09:23:14;5.23;;;3.67;;
15096;SDS011;7649;52.084;7.478;2023-08-31T09:25:45;4.53;;;3.40;;
15096;SDS011;7649;52.084;7.478;2023-08-31T09:28:15;16.93;;;4.87;;
15096;SDS011;7649;52.084;7.478;2023-08-31T09:30:44;7.57;;;4.30;;
15096;SDS011;7649;52.084;7.478;2023-08-31T09:33:15;4.73;;;3.53;;
15096;SDS011;7649;52.084;7.478;2023-08-31T09:35:47;5.30;;;3.60;;
15096;SDS011;7649;52.084;7.478;2023-08-31T09:38:17;4.37;;;3.43;;
15096;SDS011;7649;52.084;7.478;2023-08-31T09:40:47;5.77;;;3.40;;
15096;SDS011;7649;52.084;7.478;2023-08-31T09:46:01;3.00;;;2.80;;
15096;SDS011;7649;52.084;7.478;2023-08-31T09:48:31;4.00;;;3.30;;
15096;SDS011;7649;52.084;7.478;2023-08-31T09:51:00;3.70;;;3.17;;
15096;SDS011;7649;52.084;7.478;2023-08-31T09:53:31;4.47;;;3.20;;
15096;SDS011;7649;52.084;7.478;2023-08-31T09:56:01;6.37;;;3.30;;
15096;SDS011;7649;52.084;7.478;2023-08-31T09:58:30;4.27;;;3.40;;
15096;SDS011;7649;52.084;7.478;2023-08-31T10:00:59;4.07;;;3.13;;
15096;SDS011;7649;52.084;7.478;2023-08-31T10:03:35;3.47;;;3.17;;
15096;SDS011;7649;52.084;7.478;2023-08-31T10:06:04;3.80;;;3.30;;
15096;SDS011;7649;52.084;7.478;2023-08-31T10:08:36;3.53;;;3.00;;
15096;SDS011;7649;52.084;7.478;2023-08-31T10:11:22;4.30;;;3.00;;
15096;SDS011;7649;52.084;7.478;2023-08-31T10:16:40;4.27;;;2.73;;
15096;SDS011;7649;52.084;7.478;2023-08-31T10:19:09;6.07;;;2.87;;
15096;SDS011;7649;52.084;7.478;2023-08-31T10:21:37;4.00;;;2.47;;
15096;SDS011;7649;52.084;7.478;2023-08-31T10:24:10;6.30;;;2.83;;
15096;SDS011;7649;52.084;7.478;2023-08-31T10:26:40;3.67;;;2.20;;
15096;SDS011;7649;52.084;7.478;2023-08-31T10:29:25;4.83;;;2.20;;
15096;SDS011;7649;52.084;7.478;2023-08-31T10:32:01;5.17;;;2.33;;
15096;SDS011;7649;52.084;7.478;2023-08-31T10:34:36;5.30;;;2.80;;
15096;SDS011;7649;52.084;7.478;2023-08-31T10:37:19;3.57;;;2.27;;
15096;SDS011;7649;52.084;7.478;2023-08-31T10:39:48;4.63;;;3.63;;
15096;SDS011;7649;52.084;7.478;2023-08-31T10:42:21;4.40;;;2.30;;
15096;SDS011;7649;52.084;7.478;2023-08-31T10:44:51;4.80;;;1.93;;
15096;SDS011;7649;52.084;7.478;2023-08-31T10:47:25;2.80;;;1.70;;
15096;SDS011;7649;52.084;7.478;2023-08-31T10:50:20;5.20;;;2.10;;
15096;SDS011;7649;52.084;7.478;2023-08-31T10:52:50;3.00;;;1.87;;
15096;SDS011;7649;52.084;7.478;2023-08-31T10:55:18;3.40;;;1.90;;
15096;SDS011;7649;52.084;7.478;2023-08-31T10:57:53;4.33;;;1.70;;
15096;SDS011;7649;52.084;7.478;2023-08-31T11:03:12;3.63;;;1.50;;
15096;SDS011;7649;52.084;7.478;2023-08-31T11:05:50;4.50;;;1.70;;
15096;SDS011;7649;52.084;7.478;2023-08-31T11:08:21;3.03;;;1.43;;
15096;SDS011;7649;52.084;7.478;2023-08-31T11:10:50;3.10;;;1.63;;
15096;SDS011;7649;52.084;7.478;2023-08-31T11:13:22;3.90;;;1.85;;
15096;SDS011;7649;52.084;7.478;2023-08-31T11:15:51;3.35;;;1.50;;
15096;SDS011;7649;52.084;7.478;2023-08-31T11:18:20;3.47;;;1.65;;
15096;SDS011;7649;52.084;7.478;2023-08-31T11:20:49;4.75;;;2.00;;
15096;SDS011;7649;52.084;7.478;2023-08-31T11:23:18;5.15;;;2.00;;
15096;SDS011;7649;52.084;7.478;2023-08-31T11:25:47;4.35;;;1.95;;
15096;SDS011;7649;52.084;7.478;2023-08-31T11:28:15;13.27;;;2.97;;
15096;SDS011;7649;52.084;7.478;2023-08-31T11:30:48;5.15;;;1.58;;
15096;SDS011;7649;52.084;7.478;2023-08-31T11:33:17;6.13;;;1.73;;
15096;SDS011;7649;52.084;7.478;2023-08-31T11:35:46;3.80;;;1.35;;
15096;SDS011;7649;52.084;7.478;2023-08-31T11:38:15;2.40;;;1.20;;
15096;SDS011;7649;52.084;7.478;2023-08-31T11:40:44;1.75;;;1.13;;
15096;SDS011;7649;52.084;7.478;2023-08-31T11:43:15;4.88;;;1.50;;
15096;SDS011;7649;52.084;7.478;2023-08-31T11:45:47;1.67;;;1.20;;
15096;SDS011;7649;52.084;7.478;2023-08-31T11:48:16;2.88;;;1.45;;
15096;SDS011;7649;52.084;7.478;2023-08-31T11:50:44;2.13;;;1.52;;
15096;SDS011;7649;52.084;7.478;2023-08-31T11:53:13;5.18;;;1.60;;
15096;SDS011;7649;52.084;7.478;2023-08-31T11:55:51;1.77;;;1.25;;
15096;SDS011;7649;52.084;7.478;2023-08-31T11:58:20;3.63;;;1.67;;
15096;SDS011;7649;52.084;7.478;2023-08-31T12:00:58;3.58;;;1.38;;
15096;SDS011;7649;52.084;7.478;2023-08-31T12:03:27;1.98;;;1.20;;
15096;SDS011;7649;52.084;7.478;2023-08-31T12:06:15;4.47;;;1.90;;
15096;SDS011;7649;52.084;7.478;2023-08-31T12:08:44;6.00;;;2.10;;
15096;SDS011;7649;52.084;7.478;2023-08-31T12:11:13;6.03;;;2.03;;
15096;SDS011;7649;52.084;7.478;2023-08-31T12:13:41;3.00;;;1.80;;
15096;SDS011;7649;52.084;7.478;2023-08-31T12:16:13;4.95;;;2.40;;
15096;SDS011;7649;52.084;7.478;2023-08-31T12:18:43;3.38;;;1.75;;
15096;SDS011;7649;52.084;7.478;2023-08-31T12:21:12;2.38;;;1.95;;
15096;SDS011;7649;52.084;7.478;2023-08-31T12:23:41;3.70;;;1.80;;
15096;SDS011;7649;52.084;7.478;2023-08-31T12:26:09;5.75;;;2.42;;
15096;SDS011;7649;52.084;7.478;2023-08-31T12:28:38;2.57;;;1.20;;
15096;SDS011;7649;52.084;7.478;2023-08-31T12:31:07;2.50;;;1.20;;
15096;SDS011;7649;52.084;7.478;2023-08-31T12:33:37;1.30;;;1.20;;
15096;SDS011;7649;52.084;7.478;2023-08-31T12:36:05;2.03;;;1.10;;
15096;SDS011;7649;52.084;7.478;2023-08-31T12:38:34;2.90;;;1.30;;
15096;SDS011;7649;52.084;7.478;2023-08-31T12:41:03;2.57;;;1.90;;
15096;SDS011;7649;52.084;7.478;2023-08-31T12:43:31;2.57;;;1.73;;
15096;SDS011;7649;52.084;7.478;2023-08-31T12:46:00;2.20;;;1.80;;
15096;SDS011;7649;52.084;7.478;2023-08-31T12:48:31;2.37;;;1.50;;
15096;SDS011;7649;52.084;7.478;2023-08-31T12:51:01;1.50;;;1.33;;
15096;SDS011;7649;52.084;7.478;2023-08-31T12:53:30;1.73;;;1.30;;
15096;SDS011;7649;52.084;7.478;2023-08-31T12:55:58;1.92;;;1.75;;
15096;SDS011;7649;52.084;7.478;2023-08-31T12:58:26;2.90;;;1.60;;
15096;SDS011;7649;52.084;7.478;2023-08-31T13:00:57;3.58;;;1.80;;
15096;SDS011;7649;52.084;7.478;2023-08-31T13:03:25;2.15;;;2.00;;
15096;SDS011;7649;52.084;7.478;2023-08-31T13:05:54;2.58;;;2.38;;
15096;SDS011;7649;52.084;7.478;2023-08-31T13:08:25;5.03;;;2.20;;
15096;SDS011;7649;52.084;7.478;2023-08-31T13:10:56;4.60;;;2.58;;
15096;SDS011;7649;52.084;7.478;2023-08-31T13:13:30;3.08;;;2.63;;
15096;SDS011;7649;52.084;7.478;2023-08-31T13:15:58;4.75;;;2.60;;
15096;SDS011;7649;52.084;7.478;2023-08-31T13:18:29;3.15;;;2.85;;
15096;SDS011;7649;52.084;7.478;2023-08-31T13:20:57;3.13;;;2.70;;
15096;SDS011;7649;52.084;7.478;2023-08-31T13:23:28;3.33;;;2.80;;
15096;SDS011;7649;52.084;7.478;2023-08-31T13:25:58;3.60;;;3.30;;
15096;SDS011;7649;52.084;7.478;2023-08-31T13:28:32;3.90;;;3.22;;
15096;SDS011;7649;52.084;7.478;2023-08-31T13:31:00;3.45;;;3.15;;
15096;SDS011;7649;52.084;7.478;2023-08-31T13:33:29;4.10;;;3.70;;
15096;SDS011;7649;52.084;7.478;2023-08-31T13:36:00;5.22;;;4.15;;
15096;SDS011;7649;52.084;7.478;2023-08-31T13:38:30;5.18;;;3.85;;
15096;SDS011;7649;52.084;7.478;2023-08-31T13:40:59;4.88;;;3.88;;
15096;SDS011;7649;52.084;7.478;2023-08-31T13:43:31;6.85;;;4.50;;
15096;SDS011;7649;52.084;7.478;2023-08-31T13:45:59;6.30;;;4.47;;
15096;SDS011;7649;52.084;7.478;2023-08-31T13:48:28;4.13;;;3.80;;
15096;SDS011;7649;52.084;7.478;2023-08-31T13:50:59;5.47;;;3.90;;
15096;SDS011;7649;52.084;7.478;2023-08-31T13:53:32;5.03;;;3.38;;
15096;SDS011;7649;52.084;7.478;2023-08-31T13:56:00;6.28;;;3.90;;
15096;SDS011;7649;52.084;7.478;2023-08-31T13:58:30;6.03;;;4.45;;
15096;SDS011;7649;52.084;7.478;2023-08-31T14:01:00;7.25;;;4.32;;
15096;SDS011;7649;52.084;7.478;2023-08-31T14:03:29;5.40;;;4.22;;
15096;SDS011;7649;52.084;7.478;2023-08-31T14:05:58;4.15;;;3.75;;
15096;SDS011;7649;52.084;7.478;2023-08-31T14:08:26;4.30;;;3.85;;
15096;SDS011;7649;52.084;7.478;2023-08-31T14:10:57;4.93;;;3.10;;
15096;SDS011;7649;52.084;7.478;2023-08-31T14:13:26;2.50;;;2.30;;
15096;SDS011;7649;52.084;7.478;2023-08-31T14:15:56;3.75;;;2.70;;
15096;SDS011;7649;52.084;7.478;2023-08-31T14:18:26;3.83;;;3.33;;
15096;SDS011;7649;52.084;7.478;2023-08-31T14:20:55;3.45;;;3.15;;
15096;SDS011;7649;52.084;7.478;2023-08-31T14:23:25;3.53;;;3.25;;
15096;SDS011;7649;52.084;7.478;2023-08-31T14:25:54;3.70;;;3.40;;
15096;SDS011;7649;52.084;7.478;2023-08-31T14:28:24;6.93;;;3.88;;
15096;SDS011;7649;52.084;7.478;2023-08-31T14:31:03;7.05;;;4.00;;
15096;SDS011;7649;52.084;7.478;2023-08-31T14:33:34;4.72;;;3.70;;
15096;SDS011;7649;52.084;7.478;2023-08-31T14:36:02;5.38;;;3.78;;
15096;SDS011;7649;52.084;7.478;2023-08-31T14:38:33;6.95;;;4.50;;
15096;SDS011;7649;52.084;7.478;2023-08-31T14:41:04;7.10;;;4.13;;
15096;SDS011;7649;52.084;7.478;2023-08-31T14:43:41;6.90;;;4.40;;
15096;SDS011;7649;52.084;7.478;2023-08-31T14:46:10;5.35;;;3.60;;
15096;SDS011;7649;52.084;7.478;2023-08-31T14:48:38;4.82;;;3.55;;
15096;SDS011;7649;52.084;7.478;2023-08-31T14:51:07;6.85;;;3.55;;
15096;SDS011;7649;52.084;7.478;2023-08-31T14:53:36;7.00;;;3.92;;
15096;SDS011;7649;52.084;7.478;2023-08-31T14:56:07;6.78;;;3.20;;
15096;SDS011;7649;52.084;7.478;2023-08-31T14:58:35;4.22;;;3.22;;
15096;SDS011;7649;52.084;7.478;2023-08-31T15:01:06;4.25;;;3.33;;
15096;SDS011;7649;52.084;7.478;2023-08-31T15:03:34;2.70;;;2.13;;
15096;SDS011;7649;52.084;7.478;2023-08-31T15:06:04;4.00;;;1.95;;
15096;SDS011;7649;52.084;7.478;2023-08-31T15:08:38;3.83;;;1.70;;
15096;SDS011;7649;52.084;7.478;2023-08-31T15:11:11;2.42;;;1.30;;
15096;SDS011;7649;52.084;7.478;2023-08-31T15:13:41;6.18;;;4.78;;
15096;SDS011;7649;52.084;7.478;2023-08-31T15:16:14;3.08;;;1.35;;
15096;SDS011;7649;52.084;7.478;2023-08-31T15:18:42;5.50;;;1.65;;